sensor_id;sensor_type;location;lat;lon;timestamp;pressure;altitude;pressure_sealevel;temperature;humidity
81181;BME280;70650;51.408;7.132;2023-11-21T00:00:04;99879.63;;;6.70;93.36
81181;BME280;70650;51.408;7.132;2023-11-21T00:02:35;99875.88;;;6.75;92.70
81181;BME280;70650;51.408;7.132;2023-11-21T00:05:00;99880.88;;;6.80;92.12
81181;BME280;70650;51.408;7.132;2023-11-21T00:07:25;99883.47;;;6.81;92.06
81181;BME280;70650;51.408;7.132;2023-11-21T00:09:52;99888.47;;;6.86;91.74
81181;BME280;70650;51.408;7.132;2023-11-21T00:12:17;99881.03;;;6.77;91.34
81181;BME280;70650;51.408;7.132;2023-11-21T00:14:43;99880.00;;;6.81;91.68
81181;BME280;70650;51.408;7.132;2023-11-21T00:17:08;99884.25;;;6.83;91.54
81181;BME280;70650;51.408;7.132;2023-11-21T00:19:33;99886.66;;;6.88;91.45
81181;BME280;70650;51.408;7.132;2023-11-21T00:21:59;99883.22;;;6.86;91.60
81181;BME280;70650;51.408;7.132;2023-11-21T00:24:25;99891.75;;;6.91;91.29
81181;BME280;70650;51.408;7.132;2023-11-21T00:26:51;99898.38;;;6.81;91.16
81181;BME280;70650;51.408;7.132;2023-11-21T00:29:16;99893.66;;;6.69;91.78
81181;BME280;70650;51.408;7.132;2023-11-21T00:31:44;99895.50;;;6.67;92.24
81181;BME280;70650;51.408;7.132;2023-11-21T00:34:09;99902.34;;;6.71;92.55
81181;BME280;70650;51.408;7.132;2023-11-21T00:36:34;99903.19;;;6.71;92.36
81181;BME280;70650;51.408;7.132;2023-11-21T00:39:00;99898.22;;;6.65;93.21
81181;BME280;70650;51.408;7.132;2023-11-21T00:41:27;99901.97;;;6.59;93.57
81181;BME280;70650;51.408;7.132;2023-11-21T00:43:53;99898.41;;;6.60;93.02
81181;BME280;70650;51.408;7.132;2023-11-21T00:46:19;99893.66;;;6.69;93.75
81181;BME280;70650;51.408;7.132;2023-11-21T00:48:44;99895.97;;;6.76;93.37
81181;BME280;70650;51.408;7.132;2023-11-21T00:51:09;99900.00;;;6.83;93.51
81181;BME280;70650;51.408;7.132;2023-11-21T00:53:35;99896.31;;;6.87;93.18
81181;BME280;70650;51.408;7.132;2023-11-21T00:56:00;99895.59;;;6.84;92.87
81181;BME280;70650;51.408;7.132;2023-11-21T00:58:26;99901.13;;;6.78;93.39
81181;BME280;70650;51.408;7.132;2023-11-21T01:00:52;99898.31;;;6.82;93.46
81181;BME280;70650;51.408;7.132;2023-11-21T01:03:18;99897.38;;;6.64;94.02
81181;BME280;70650;51.408;7.132;2023-11-21T01:05:43;99903.88;;;6.75;94.33
81181;BME280;70650;51.408;7.132;2023-11-21T01:08:08;99898.22;;;6.84;94.35
81181;BME280;70650;51.408;7.132;2023-11-21T01:10:34;99901.84;;;6.81;93.33
81181;BME280;70650;51.408;7.132;2023-11-21T01:12:59;99900.66;;;6.70;93.30
81181;BME280;70650;51.408;7.132;2023-11-21T01:15:25;99913.13;;;6.64;93.21
81181;BME280;70650;51.408;7.132;2023-11-21T01:17:51;99903.28;;;6.70;93.59
81181;BME280;70650;51.408;7.132;2023-11-21T01:20:17;99905.66;;;6.74;93.29
81181;BME280;70650;51.408;7.132;2023-11-21T01:22:42;99904.25;;;6.67;92.93
81181;BME280;70650;51.408;7.132;2023-11-21T01:25:08;99915.31;;;6.74;92.94
81181;BME280;70650;51.408;7.132;2023-11-21T01:27:34;99921.16;;;6.80;93.04
81181;BME280;70650;51.408;7.132;2023-11-21T01:30:00;99925.28;;;6.86;93.16
81181;BME280;70650;51.408;7.132;2023-11-21T01:32:25;99921.16;;;6.80;92.11
81181;BME280;70650;51.408;7.132;2023-11-21T01:34:51;99925.13;;;6.70;93.31
81181;BME280;70650;51.408;7.132;2023-11-21T01:37:16;99925.41;;;6.64;93.44
81181;BME280;70650;51.408;7.132;2023-11-21T01:39:43;99930.06;;;6.57;93.79
81181;BME280;70650;51.408;7.132;2023-11-21T01:42:10;99923.91;;;6.58;94.33
81181;BME280;70650;51.408;7.132;2023-11-21T01:44:38;99920.47;;;6.77;94.43
81181;BME280;70650;51.408;7.132;2023-11-21T01:47:03;99929.69;;;6.85;94.18
81181;BME280;70650;51.408;7.132;2023-11-21T01:49:33;99923.72;;;6.82;93.74
81181;BME280;70650;51.408;7.132;2023-11-21T01:51:58;99921.22;;;6.79;93.44
81181;BME280;70650;51.408;7.132;2023-11-21T01:54:25;99926.47;;;6.79;93.57
81181;BME280;70650;51.408;7.132;2023-11-21T01:56:50;99921.44;;;6.74;93.46
81181;BME280;70650;51.408;7.132;2023-11-21T01:59:19;99930.81;;;6.80;94.00
81181;BME280;70650;51.408;7.132;2023-11-21T02:01:46;99924.78;;;6.78;93.20
81181;BME280;70650;51.408;7.132;2023-11-21T02:04:12;99921.44;;;6.74;93.67
81181;BME280;70650;51.408;7.132;2023-11-21T02:06:38;99927.53;;;6.75;93.55
81181;BME280;70650;51.408;7.132;2023-11-21T02:09:04;99930.50;;;6.67;93.79
81181;BME280;70650;51.408;7.132;2023-11-21T02:11:31;99941.75;;;6.71;94.06
81181;BME280;70650;51.408;7.132;2023-11-21T02:13:59;99939.25;;;6.68;93.44
81181;BME280;70650;51.408;7.132;2023-11-21T02:16:24;99945.50;;;6.65;93.81
81181;BME280;70650;51.408;7.132;2023-11-21T02:18:51;99948.19;;;6.63;93.81
81181;BME280;70650;51.408;7.132;2023-11-21T02:21:17;99950.81;;;6.63;93.84
81181;BME280;70650;51.408;7.132;2023-11-21T02:23:42;99948.06;;;6.67;94.10
81181;BME280;70650;51.408;7.132;2023-11-21T02:26:10;99954.69;;;6.75;93.94
81181;BME280;70650;51.408;7.132;2023-11-21T02:28:36;99955.66;;;6.73;93.80
81181;BME280;70650;51.408;7.132;2023-11-21T02:31:01;99952.97;;;6.74;93.69
81181;BME280;70650;51.408;7.132;2023-11-21T02:33:28;99953.75;;;6.76;94.17
81181;BME280;70650;51.408;7.132;2023-11-21T02:35:53;99959.59;;;6.83;93.95
81181;BME280;70650;51.408;7.132;2023-11-21T02:38:20;99954.41;;;6.81;93.46
81181;BME280;70650;51.408;7.132;2023-11-21T02:40:46;99954.34;;;6.83;93.25
81181;BME280;70650;51.408;7.132;2023-11-21T02:43:11;99951.56;;;6.86;93.40
81181;BME280;70650;51.408;7.132;2023-11-21T02:45:36;99963.16;;;6.82;93.30
81181;BME280;70650;51.408;7.132;2023-11-21T02:48:02;99960.25;;;6.88;93.59
81181;BME280;70650;51.408;7.132;2023-11-21T02:50:28;99962.78;;;6.89;93.26
81181;BME280;70650;51.408;7.132;2023-11-21T02:52:55;99962.22;;;6.83;93.48
81181;BME280;70650;51.408;7.132;2023-11-21T02:55:22;99971.16;;;6.79;93.75
81181;BME280;70650;51.408;7.132;2023-11-21T02:57:51;99969.56;;;6.75;93.61
81181;BME280;70650;51.408;7.132;2023-11-21T03:00:17;99971.44;;;6.73;93.48
81181;BME280;70650;51.408;7.132;2023-11-21T03:02:45;99975.91;;;6.71;94.00
81181;BME280;70650;51.408;7.132;2023-11-21T03:05:10;99977.81;;;6.67;94.15
81181;BME280;70650;51.408;7.132;2023-11-21T03:07:39;99977.97;;;6.64;94.47
81181;BME280;70650;51.408;7.132;2023-11-21T03:10:06;99981.47;;;6.63;94.73
81181;BME280;70650;51.408;7.132;2023-11-21T03:12:31;99983.97;;;6.66;94.52
81181;BME280;70650;51.408;7.132;2023-11-21T03:14:57;99990.16;;;6.65;94.67
81181;BME280;70650;51.408;7.132;2023-11-21T03:17:23;99990.00;;;6.68;95.27
81181;BME280;70650;51.408;7.132;2023-11-21T03:19:49;99985.34;;;6.75;94.78
81181;BME280;70650;51.408;7.132;2023-11-21T03:22:14;99983.16;;;6.84;95.14
81181;BME280;70650;51.408;7.132;2023-11-21T03:24:40;99994.25;;;6.91;94.88
81181;BME280;70650;51.408;7.132;2023-11-21T03:27:05;99988.81;;;6.96;94.57
81181;BME280;70650;51.408;7.132;2023-11-21T03:29:30;99978.09;;;7.00;94.20
81181;BME280;70650;51.408;7.132;2023-11-21T03:31:56;99991.22;;;7.00;93.95
81181;BME280;70650;51.408;7.132;2023-11-21T03:34:26;99995.63;;;7.00;93.85
81181;BME280;70650;51.408;7.132;2023-11-21T03:36:52;100001.75;;;7.00;93.79
81181;BME280;70650;51.408;7.132;2023-11-21T03:39:19;100003.78;;;6.94;93.16
81181;BME280;70650;51.408;7.132;2023-11-21T03:41:45;100001.56;;;6.84;93.41
81181;BME280;70650;51.408;7.132;2023-11-21T03:44:11;100011.63;;;6.75;93.83
81181;BME280;70650;51.408;7.132;2023-11-21T03:46:36;100011.41;;;6.79;94.40
81181;BME280;70650;51.408;7.132;2023-11-21T03:49:01;100020.88;;;6.83;94.15
81181;BME280;70650;51.408;7.132;2023-11-21T03:51:27;100020.75;;;6.86;94.15
81181;BME280;70650;51.408;7.132;2023-11-21T03:53:54;100029.16;;;6.95;94.14
81181;BME280;70650;51.408;7.132;2023-11-21T03:56:19;100025.59;;;6.96;94.06
81181;BME280;70650;51.408;7.132;2023-11-21T03:58:47;100032.50;;;6.98;94.17
81181;BME280;70650;51.408;7.132;2023-11-21T04:01:22;100026.25;;;7.01;94.48
81181;BME280;70650;51.408;7.132;2023-11-21T04:03:48;100035.56;;;7.08;94.56
81181;BME280;70650;51.408;7.132;2023-11-21T04:06:13;100040.53;;;7.14;94.27
81181;BME280;70650;51.408;7.132;2023-11-21T04:08:39;100040.41;;;7.17;94.04
81181;BME280;70650;51.408;7.132;2023-11-21T04:11:04;100041.38;;;7.14;93.52
81181;BME280;70650;51.408;7.132;2023-11-21T04:13:31;100035.63;;;7.06;93.27
81181;BME280;70650;51.408;7.132;2023-11-21T04:15:56;100033.13;;;7.03;93.87
81181;BME280;70650;51.408;7.132;2023-11-21T04:18:21;100034.06;;;7.02;93.58
81181;BME280;70650;51.408;7.132;2023-11-21T04:20:48;100035.06;;;7.00;93.52
81181;BME280;70650;51.408;7.132;2023-11-21T04:23:14;100036.09;;;6.96;93.62
81181;BME280;70650;51.408;7.132;2023-11-21T04:25:40;100039.28;;;6.83;93.72
81181;BME280;70650;51.408;7.132;2023-11-21T04:28:05;100047.28;;;6.80;93.66
81181;BME280;70650;51.408;7.132;2023-11-21T04:30:31;100038.69;;;6.77;93.63
81181;BME280;70650;51.408;7.132;2023-11-21T04:32:56;100048.47;;;6.73;93.57
81181;BME280;70650;51.408;7.132;2023-11-21T04:35:22;100049.41;;;6.72;93.83
81181;BME280;70650;51.408;7.132;2023-11-21T04:37:47;100053.03;;;6.70;93.63
81181;BME280;70650;51.408;7.132;2023-11-21T04:40:12;100049.66;;;6.66;93.80
81181;BME280;70650;51.408;7.132;2023-11-21T04:42:38;100048.66;;;6.69;93.82
81181;BME280;70650;51.408;7.132;2023-11-21T04:45:04;100051.94;;;6.74;93.80
81181;BME280;70650;51.408;7.132;2023-11-21T04:47:33;100049.66;;;6.66;93.71
81181;BME280;70650;51.408;7.132;2023-11-21T04:49:58;100059.06;;;6.72;93.80
81181;BME280;70650;51.408;7.132;2023-11-21T04:52:23;100061.94;;;6.66;93.14
81181;BME280;70650;51.408;7.132;2023-11-21T04:54:49;100055.09;;;6.61;93.62
81181;BME280;70650;51.408;7.132;2023-11-21T04:57:14;100068.13;;;6.64;93.43
81181;BME280;70650;51.408;7.132;2023-11-21T04:59:39;100064.69;;;6.62;93.61
81181;BME280;70650;51.408;7.132;2023-11-21T05:02:05;100064.69;;;6.62;93.81
81181;BME280;70650;51.408;7.132;2023-11-21T05:04:30;100065.25;;;6.71;94.12
81181;BME280;70650;51.408;7.132;2023-11-21T05:06:56;100066.78;;;6.75;93.64
81181;BME280;70650;51.408;7.132;2023-11-21T05:09:21;100076.06;;;6.63;93.49
81181;BME280;70650;51.408;7.132;2023-11-21T05:11:47;100076.84;;;6.65;94.58
81181;BME280;70650;51.408;7.132;2023-11-21T05:14:14;100076.72;;;6.68;94.27
81181;BME280;70650;51.408;7.132;2023-11-21T05:16:39;100076.41;;;6.76;94.28
81181;BME280;70650;51.408;7.132;2023-11-21T05:19:04;100076.16;;;6.82;94.12
81181;BME280;70650;51.408;7.132;2023-11-21T05:21:30;100079.34;;;6.88;94.26
81181;BME280;70650;51.408;7.132;2023-11-21T05:23:58;100076.66;;;6.90;93.67
81181;BME280;70650;51.408;7.132;2023-11-21T05:26:24;100081.97;;;6.88;93.07
81181;BME280;70650;51.408;7.132;2023-11-21T05:28:49;100084.69;;;6.87;93.16
81181;BME280;70650;51.408;7.132;2023-11-21T05:31:15;100089.94;;;6.87;92.92
81181;BME280;70650;51.408;7.132;2023-11-21T05:33:40;100092.56;;;6.87;92.93
81181;BME280;70650;51.408;7.132;2023-11-21T05:36:07;100098.50;;;6.92;92.89
81181;BME280;70650;51.408;7.132;2023-11-21T05:38:33;100099.28;;;6.94;92.61
81181;BME280;70650;51.408;7.132;2023-11-21T05:40:58;100101.81;;;6.96;92.68
81181;BME280;70650;51.408;7.132;2023-11-21T05:43:24;100112.25;;;6.97;92.59
81181;BME280;70650;51.408;7.132;2023-11-21T05:45:49;100109.63;;;6.97;92.24
81181;BME280;70650;51.408;7.132;2023-11-21T05:48:15;100111.56;;;6.94;92.47
81181;BME280;70650;51.408;7.132;2023-11-21T05:50:40;100117.84;;;6.89;92.56
81181;BME280;70650;51.408;7.132;2023-11-21T05:53:06;100117.06;;;6.87;93.04
81181;BME280;70650;51.408;7.132;2023-11-21T05:55:32;100124.88;;;6.89;92.84
81181;BME280;70650;51.408;7.132;2023-11-21T05:57:58;100131.84;;;6.90;93.00
81181;BME280;70650;51.408;7.132;2023-11-21T06:00:23;100134.63;;;6.87;92.88
81181;BME280;70650;51.408;7.132;2023-11-21T06:02:51;100140.72;;;6.87;93.27
81181;BME280;70650;51.408;7.132;2023-11-21T06:05:19;100143.53;;;6.83;93.67
81181;BME280;70650;51.408;7.132;2023-11-21T06:07:45;100145.41;;;6.81;93.87
81181;BME280;70650;51.408;7.132;2023-11-21T06:10:11;100144.50;;;6.80;93.58
81181;BME280;70650;51.408;7.132;2023-11-21T06:12:40;100144.78;;;6.74;93.80
81181;BME280;70650;51.408;7.132;2023-11-21T06:15:08;100155.28;;;6.74;93.66
81181;BME280;70650;51.408;7.132;2023-11-21T06:17:37;100155.34;;;6.73;93.86
81181;BME280;70650;51.408;7.132;2023-11-21T06:20:03;100164.91;;;6.75;93.50
81181;BME280;70650;51.408;7.132;2023-11-21T06:22:35;100166.72;;;6.73;93.97
81181;BME280;70650;51.408;7.132;2023-11-21T06:25:01;100168.75;;;6.67;93.84
81181;BME280;70650;51.408;7.132;2023-11-21T06:27:26;100172.72;;;6.77;94.40
81181;BME280;70650;51.408;7.132;2023-11-21T06:29:51;100176.50;;;6.70;93.87
81181;BME280;70650;51.408;7.132;2023-11-21T06:32:16;100181.50;;;6.76;94.41
81181;BME280;70650;51.408;7.132;2023-11-21T06:34:42;100188.53;;;6.75;93.98
81181;BME280;70650;51.408;7.132;2023-11-21T06:37:07;100195.19;;;6.84;94.11
81181;BME280;70650;51.408;7.132;2023-11-21T06:39:32;100194.22;;;6.86;93.85
81181;BME280;70650;51.408;7.132;2023-11-21T06:41:58;100195.06;;;6.87;93.60
81181;BME280;70650;51.408;7.132;2023-11-21T06:44:25;100193.22;;;6.89;93.87
81181;BME280;70650;51.408;7.132;2023-11-21T06:46:50;100197.56;;;6.90;93.67
81181;BME280;70650;51.408;7.132;2023-11-21T06:49:16;100198.28;;;6.94;94.12
81181;BME280;70650;51.408;7.132;2023-11-21T06:51:42;100200.78;;;6.97;93.50
81181;BME280;70650;51.408;7.132;2023-11-21T06:54:07;100203.16;;;7.03;93.55
81181;BME280;70650;51.408;7.132;2023-11-21T06:56:35;100202.28;;;7.02;93.68
81181;BME280;70650;51.408;7.132;2023-11-21T06:59:01;100213.41;;;7.09;93.26
81181;BME280;70650;51.408;7.132;2023-11-21T07:01:26;100216.03;;;6.88;93.75
81181;BME280;70650;51.408;7.132;2023-11-21T07:03:51;100218.06;;;6.82;94.21
81181;BME280;70650;51.408;7.132;2023-11-21T07:06:16;100225.94;;;6.82;94.32
81181;BME280;70650;51.408;7.132;2023-11-21T07:08:42;100225.53;;;6.91;94.61
81181;BME280;70650;51.408;7.132;2023-11-21T07:11:09;100221.34;;;6.87;93.96
81181;BME280;70650;51.408;7.132;2023-11-21T07:13:35;100227.63;;;6.83;94.02
81181;BME280;70650;51.408;7.132;2023-11-21T07:16:00;100235.28;;;6.89;93.91
81181;BME280;70650;51.408;7.132;2023-11-21T07:18:26;100233.38;;;6.93;93.75
81181;BME280;70650;51.408;7.132;2023-11-21T07:20:51;100235.38;;;6.86;94.32
81181;BME280;70650;51.408;7.132;2023-11-21T07:23:18;100242.22;;;6.90;94.44
81181;BME280;70650;51.408;7.132;2023-11-21T07:25:43;100244.69;;;6.95;94.59
81181;BME280;70650;51.408;7.132;2023-11-21T07:28:09;100240.28;;;6.95;94.32
81181;BME280;70650;51.408;7.132;2023-11-21T07:30:34;100254.44;;;7.13;94.09
81181;BME280;70650;51.408;7.132;2023-11-21T07:33:01;100246.25;;;7.21;94.31
81181;BME280;70650;51.408;7.132;2023-11-21T07:35:26;100250.31;;;7.28;93.93
81181;BME280;70650;51.408;7.132;2023-11-21T07:37:52;100252.44;;;7.40;94.03
81181;BME280;70650;51.408;7.132;2023-11-21T07:40:20;100244.41;;;7.43;93.69
81181;BME280;70650;51.408;7.132;2023-11-21T07:42:47;100259.03;;;7.50;93.78
81181;BME280;70650;51.408;7.132;2023-11-21T07:45:12;100250.94;;;7.55;93.11
81181;BME280;70650;51.408;7.132;2023-11-21T07:47:37;100254.53;;;7.52;92.92
81181;BME280;70650;51.408;7.132;2023-11-21T07:50:04;100261.00;;;7.45;92.96
81181;BME280;70650;51.408;7.132;2023-11-21T07:52:30;100257.97;;;7.34;93.12
81181;BME280;70650;51.408;7.132;2023-11-21T07:54:55;100254.28;;;7.38;93.53
81181;BME280;70650;51.408;7.132;2023-11-21T07:57:21;100259.22;;;7.46;93.58
81181;BME280;70650;51.408;7.132;2023-11-21T07:59:47;100262.88;;;7.41;92.82
81181;BME280;70650;51.408;7.132;2023-11-21T08:02:12;100263.72;;;7.42;93.48
81181;BME280;70650;51.408;7.132;2023-11-21T08:04:37;100270.41;;;7.51;93.55
81181;BME280;70650;51.408;7.132;2023-11-21T08:07:03;100276.63;;;7.48;93.63
81181;BME280;70650;51.408;7.132;2023-11-21T08:09:29;100281.63;;;7.54;93.22
81181;BME280;70650;51.408;7.132;2023-11-21T08:11:54;100291.66;;;7.66;93.71
81181;BME280;70650;51.408;7.132;2023-11-21T08:14:19;100293.34;;;7.67;93.29
81181;BME280;70650;51.408;7.132;2023-11-21T08:16:45;100296.25;;;7.61;93.40
81181;BME280;70650;51.408;7.132;2023-11-21T08:19:10;100305.47;;;7.72;93.30
81181;BME280;70650;51.408;7.132;2023-11-21T08:21:36;100314.16;;;7.74;92.95
81181;BME280;70650;51.408;7.132;2023-11-21T08:24:02;100320.38;;;7.71;93.52
81181;BME280;70650;51.408;7.132;2023-11-21T08:26:29;100325.72;;;7.69;93.71
81181;BME280;70650;51.408;7.132;2023-11-21T08:28:55;100333.50;;;7.73;94.12
81181;BME280;70650;51.408;7.132;2023-11-21T08:31:27;100340.19;;;7.80;94.11
81181;BME280;70650;51.408;7.132;2023-11-21T08:33:54;100344.94;;;7.72;94.63
81181;BME280;70650;51.408;7.132;2023-11-21T08:36:24;100350.13;;;7.73;94.35
81181;BME280;70650;51.408;7.132;2023-11-21T08:38:50;100350.44;;;7.65;95.33
81181;BME280;70650;51.408;7.132;2023-11-21T08:41:17;100369.00;;;7.62;94.88
81181;BME280;70650;51.408;7.132;2023-11-21T08:43:42;100365.19;;;7.49;95.38
81181;BME280;70650;51.408;7.132;2023-11-21T08:46:08;100357.13;;;7.52;95.67
81181;BME280;70650;51.408;7.132;2023-11-21T08:48:36;100362.41;;;7.52;95.67
81181;BME280;70650;51.408;7.132;2023-11-21T08:51:03;100367.56;;;7.55;95.55
81181;BME280;70650;51.408;7.132;2023-11-21T08:53:29;100374.28;;;7.62;95.62
81181;BME280;70650;51.408;7.132;2023-11-21T08:55:54;100372.03;;;7.74;95.15
81181;BME280;70650;51.408;7.132;2023-11-21T08:58:19;100372.03;;;7.74;95.53
81181;BME280;70650;51.408;7.132;2023-11-21T09:00:45;100369.25;;;7.56;95.69
81181;BME280;70650;51.408;7.132;2023-11-21T09:03:12;100368.44;;;7.54;95.56
81181;BME280;70650;51.408;7.132;2023-11-21T09:05:38;100370.38;;;7.51;96.06
81181;BME280;70650;51.408;7.132;2023-11-21T09:08:04;100374.28;;;7.62;95.84
81181;BME280;70650;51.408;7.132;2023-11-21T09:10:29;100374.44;;;7.58;95.64
81181;BME280;70650;51.408;7.132;2023-11-21T09:12:55;100377.81;;;7.61;95.79
81181;BME280;70650;51.408;7.132;2023-11-21T09:15:20;100388.78;;;7.51;96.40
81181;BME280;70650;51.408;7.132;2023-11-21T09:17:45;100399.25;;;7.52;96.34
81181;BME280;70650;51.408;7.132;2023-11-21T09:20:11;100397.66;;;7.48;96.47
81181;BME280;70650;51.408;7.132;2023-11-21T09:22:36;100396.28;;;7.60;96.49
81181;BME280;70650;51.408;7.132;2023-11-21T09:25:02;100397.50;;;7.73;96.15
81181;BME280;70650;51.408;7.132;2023-11-21T09:27:33;100393.19;;;7.72;95.99
81181;BME280;70650;51.408;7.132;2023-11-21T09:29:58;100395.56;;;7.78;96.18
81181;BME280;70650;51.408;7.132;2023-11-21T09:32:23;100399.56;;;7.87;96.06
81181;BME280;70650;51.408;7.132;2023-11-21T09:34:49;100402.13;;;7.88;95.73
81181;BME280;70650;51.408;7.132;2023-11-21T09:37:15;100409.56;;;7.99;95.50
81181;BME280;70650;51.408;7.132;2023-11-21T09:39:41;100415.69;;;8.00;95.00
81181;BME280;70650;51.408;7.132;2023-11-21T09:44:58;100418.72;;;7.90;95.30
81181;BME280;70650;51.408;7.132;2023-11-21T09:47:29;100414.44;;;8.08;95.52
81181;BME280;70650;51.408;7.132;2023-11-21T09:49:56;100423.13;;;8.10;94.86
81181;BME280;70650;51.408;7.132;2023-11-21T09:52:25;100428.28;;;8.13;94.80
81181;BME280;70650;51.408;7.132;2023-11-21T09:54:52;100434.41;;;8.14;94.72
81181;BME280;70650;51.408;7.132;2023-11-21T09:57:25;100431.97;;;8.09;94.74
81181;BME280;70650;51.408;7.132;2023-11-21T09:59:54;100428.66;;;8.04;94.60
81181;BME280;70650;51.408;7.132;2023-11-21T10:02:28;100427.50;;;8.11;94.15
81181;BME280;70650;51.408;7.132;2023-11-21T10:04:59;100429.41;;;8.08;94.65
81181;BME280;70650;51.408;7.132;2023-11-21T10:07:26;100432.16;;;8.25;94.08
81181;BME280;70650;51.408;7.132;2023-11-21T10:09:52;100434.78;;;8.05;94.32
81181;BME280;70650;51.408;7.132;2023-11-21T10:12:19;100433.66;;;8.10;94.21
81181;BME280;70650;51.408;7.132;2023-11-21T10:14:48;100438.66;;;8.16;94.41
81181;BME280;70650;51.408;7.132;2023-11-21T10:17:27;100435.44;;;8.10;94.48
81181;BME280;70650;51.408;7.132;2023-11-21T10:20:04;100441.31;;;8.16;94.23
81181;BME280;70650;51.408;7.132;2023-11-21T10:22:37;100446.38;;;8.21;94.05
81181;BME280;70650;51.408;7.132;2023-11-21T10:25:03;100441.97;;;8.21;94.23
81181;BME280;70650;51.408;7.132;2023-11-21T10:27:33;100437.56;;;8.22;94.40
81181;BME280;70650;51.408;7.132;2023-11-21T10:30:01;100440.34;;;8.19;93.99
81181;BME280;70650;51.408;7.132;2023-11-21T10:32:29;100430.91;;;8.34;93.82
81181;BME280;70650;51.408;7.132;2023-11-21T10:34:58;100435.53;;;8.29;94.50
81181;BME280;70650;51.408;7.132;2023-11-21T10:37:32;100431.81;;;8.33;94.14
81181;BME280;70650;51.408;7.132;2023-11-21T10:39:58;100446.19;;;8.26;93.84
81181;BME280;70650;51.408;7.132;2023-11-21T10:42:24;100440.50;;;8.36;93.98
81181;BME280;70650;51.408;7.132;2023-11-21T10:44:49;100447.09;;;8.46;93.44
81181;BME280;70650;51.408;7.132;2023-11-21T10:47:16;100458.19;;;8.53;93.24
81181;BME280;70650;51.408;7.132;2023-11-21T10:49:49;100457.66;;;8.65;93.41
81181;BME280;70650;51.408;7.132;2023-11-21T10:52:14;100453.50;;;8.60;93.67
81181;BME280;70650;51.408;7.132;2023-11-21T10:54:43;100452.47;;;8.43;93.25
81181;BME280;70650;51.408;7.132;2023-11-21T10:57:09;100454.19;;;8.44;92.97
81181;BME280;70650;51.408;7.132;2023-11-21T10:59:35;100467.81;;;8.54;93.09
81181;BME280;70650;51.408;7.132;2023-11-21T11:02:02;100468.19;;;8.65;92.76
81181;BME280;70650;51.408;7.132;2023-11-21T11:04:33;100469.88;;;8.87;92.59
81181;BME280;70650;51.408;7.132;2023-11-21T11:07:03;100466.31;;;8.69;92.34
81181;BME280;70650;51.408;7.132;2023-11-21T11:09:31;100480.34;;;8.88;92.33
81181;BME280;70650;51.408;7.132;2023-11-21T11:11:59;100481.25;;;9.08;92.23
81181;BME280;70650;51.408;7.132;2023-11-21T11:14:25;100479.31;;;9.11;91.79
81181;BME280;70650;51.408;7.132;2023-11-21T11:16:54;100479.50;;;9.07;91.83
81181;BME280;70650;51.408;7.132;2023-11-21T11:19:21;100478.09;;;8.99;90.48
81181;BME280;70650;51.408;7.132;2023-11-21T11:27:40;100483.75;;;9.11;91.57
81181;BME280;70650;51.408;7.132;2023-11-21T11:35:38;100477.81;;;9.24;91.45
81181;BME280;70650;51.408;7.132;2023-11-21T11:38:07;100472.97;;;9.34;90.99
81181;BME280;70650;51.408;7.132;2023-11-21T11:40:46;100471.06;;;9.38;90.49
81181;BME280;70650;51.408;7.132;2023-11-21T11:43:11;100478.50;;;9.47;90.77
81181;BME280;70650;51.408;7.132;2023-11-21T11:45:37;100474.38;;;9.41;90.67
81181;BME280;70650;51.408;7.132;2023-11-21T11:48:07;100480.69;;;9.39;89.98
81181;BME280;70650;51.408;7.132;2023-11-21T11:50:33;100478.97;;;9.38;89.88
81181;BME280;70650;51.408;7.132;2023-11-21T11:53:15;100472.53;;;9.43;90.78
81181;BME280;70650;51.408;7.132;2023-11-21T11:55:41;100473.97;;;9.50;90.17
81181;BME280;70650;51.408;7.132;2023-11-21T11:58:07;100480.09;;;9.51;89.93
81181;BME280;70650;51.408;7.132;2023-11-21T12:00:34;100488.22;;;9.65;90.08
81181;BME280;70650;51.408;7.132;2023-11-21T12:03:07;100486.56;;;9.63;89.62
81181;BME280;70650;51.408;7.132;2023-11-21T12:05:34;100484.00;;;9.61;89.43
81181;BME280;70650;51.408;7.132;2023-11-21T12:08:04;100486.47;;;9.64;89.78
81181;BME280;70650;51.408;7.132;2023-11-21T12:10:31;100495.91;;;9.70;90.81
81181;BME280;70650;51.408;7.132;2023-11-21T12:13:02;100504.06;;;9.65;89.85
81181;BME280;70650;51.408;7.132;2023-11-21T12:15:28;100503.72;;;9.54;90.16
81181;BME280;70650;51.408;7.132;2023-11-21T12:17:55;100499.72;;;9.26;89.71
81181;BME280;70650;51.408;7.132;2023-11-21T12:20:24;100502.19;;;9.29;90.16
81181;BME280;70650;51.408;7.132;2023-11-21T12:22:51;100508.69;;;9.22;91.10
81181;BME280;70650;51.408;7.132;2023-11-21T12:25:27;100506.69;;;9.27;90.60
81181;BME280;70650;51.408;7.132;2023-11-21T12:28:00;100513.88;;;9.24;91.13
81181;BME280;70650;51.408;7.132;2023-11-21T12:30:29;100512.56;;;9.15;91.46
81181;BME280;70650;51.408;7.132;2023-11-21T12:32:57;100515.31;;;9.12;92.29
81181;BME280;70650;51.408;7.132;2023-11-21T12:35:27;100517.06;;;9.13;92.10
81181;BME280;70650;51.408;7.132;2023-11-21T12:37:54;100518.22;;;9.06;92.29
81181;BME280;70650;51.408;7.132;2023-11-21T12:40:20;100520.16;;;9.02;92.66
81181;BME280;70650;51.408;7.132;2023-11-21T12:42:51;100522.19;;;8.96;92.90
81181;BME280;70650;51.408;7.132;2023-11-21T12:47:43;100522.53;;;8.88;93.28
81181;BME280;70650;51.408;7.132;2023-11-21T12:50:10;100527.16;;;8.83;93.07
81181;BME280;70650;51.408;7.132;2023-11-21T12:52:44;100524.06;;;8.73;93.51
81181;BME280;70650;51.408;7.132;2023-11-21T12:55:20;100533.63;;;8.76;94.41
81181;BME280;70650;51.408;7.132;2023-11-21T12:57:51;100531.19;;;8.71;94.48
81181;BME280;70650;51.408;7.132;2023-11-21T13:00:33;100533.91;;;8.70;94.64
81181;BME280;70650;51.408;7.132;2023-11-21T13:03:03;100542.84;;;8.66;95.03
81181;BME280;70650;51.408;7.132;2023-11-21T13:05:32;100545.56;;;8.64;95.67
81181;BME280;70650;51.408;7.132;2023-11-21T13:08:00;100547.44;;;8.62;95.53
81181;BME280;70650;51.408;7.132;2023-11-21T13:10:28;100552.69;;;8.62;95.83
81181;BME280;70650;51.408;7.132;2023-11-21T13:13:00;100562.56;;;8.57;95.38
81181;BME280;70650;51.408;7.132;2023-11-21T13:15:27;100567.97;;;8.54;95.68